Time;durP1;ratioP1;P1;durP2;ratioP2;P2;SDS_P1;SDS_P2;PMS_P1;PMS_P2;Temp;Humidity;BMP_temperature;BMP_pressure;BME280_temperature;BME280_humidity;BME280_pressure;Samples;Min_cycle;Max_cycle;Signal;HPM_P1;HPM_P2
2022/10/13 00:01:45;;;;;;;22.50;14.88;;;24.20;44.10;;;;;;7675759;22;83950;-53
2022/10/13 00:04:46;;;;;;;23.52;14.70;;;24.20;44.20;;;;;;7674095;22;83401;-53
2022/10/13 00:07:46;;;;;;;23.45;14.63;;;24.20;44.10;;;;;;7675422;22;82922;-52
2022/10/13 00:10:47;;;;;;;19.35;14.15;;;24.20;44.10;;;;;;7674644;22;82948;-52
2022/10/13 00:13:47;;;;;;;21.63;14.55;;;24.20;44.10;;;;;;7672611;22;83162;-52
2022/10/13 00:16:48;;;;;;;25.02;14.63;;;24.20;44.20;;;;;;7676080;22;83050;-53
2022/10/13 00:19:48;;;;;;;23.95;14.05;;;24.20;44.30;;;;;;7676935;22;83256;-54
2022/10/13 00:22:49;;;;;;;20.25;13.55;;;24.20;44.20;;;;;;7670511;22;82871;-50
2022/10/13 00:25:49;;;;;;;19.70;13.63;;;24.20;44.20;;;;;;7672248;22;82764;-52
2022/10/13 00:28:50;;;;;;;21.23;13.13;;;24.20;44.20;;;;;;7674776;22;84405;-53
2022/10/13 00:31:50;;;;;;;19.90;13.32;;;24.20;44.20;;;;;;7672941;22;83940;-52
2022/10/13 00:34:51;;;;;;;21.05;13.93;;;24.20;44.20;;;;;;7676396;22;82934;-52
2022/10/13 00:37:53;;;;;;;20.73;13.93;;;24.20;44.20;;;;;;7673197;22;82862;-47
2022/10/13 00:40:53;;;;;;;20.00;12.98;;;24.20;44.10;;;;;;7673062;22;83136;-48
2022/10/13 00:43:55;;;;;;;20.48;13.75;;;24.20;44.10;;;;;;7674353;22;83285;-48
2022/10/13 00:46:56;;;;;;;22.88;12.77;;;24.20;44.20;;;;;;7673985;22;84049;-49
2022/10/13 00:49:56;;;;;;;21.83;13.57;;;24.20;44.20;;;;;;7674827;22;83093;-48
2022/10/13 00:52:57;;;;;;;21.30;13.30;;;24.20;44.00;;;;;;7674912;22;83379;-48
2022/10/13 00:55:58;;;;;;;21.75;13.75;;;24.20;44.10;;;;;;7672897;22;84083;-50
2022/10/13 00:58:59;;;;;;;19.48;12.98;;;24.20;44.00;;;;;;7673362;22;84028;-49
2022/10/13 01:01:59;;;;;;;19.73;13.27;;;24.20;43.90;;;;;;7674290;22;82883;-48
2022/10/13 01:05:00;;;;;;;20.88;12.98;;;24.20;44.00;;;;;;7670161;22;84265;-51
2022/10/13 01:08:01;;;;;;;20.08;13.30;;;24.10;44.00;;;;;;7673712;22;84343;-48
2022/10/13 01:11:02;;;;;;;20.73;13.45;;;24.10;43.90;;;;;;7674809;22;83345;-50
2022/10/13 01:14:02;;;;;;;20.83;11.95;;;24.10;43.80;;;;;;7673714;22;83083;-48
2022/10/13 01:17:03;;;;;;;20.38;13.00;;;24.10;43.80;;;;;;7671198;22;82964;-47
2022/10/13 01:20:04;;;;;;;22.27;13.65;;;24.10;43.60;;;;;;7673540;22;83168;-49
2022/10/13 01:23:05;;;;;;;21.45;13.57;;;24.10;43.60;;;;;;7675653;22;83330;-46
2022/10/13 01:26:05;;;;;;;20.23;13.10;;;24.10;43.70;;;;;;7674174;22;83191;-53
2022/10/13 01:29:07;;;;;;;22.48;13.63;;;24.10;43.70;;;;;;7676560;22;83920;-51
2022/10/13 01:32:09;;;;;;;20.10;13.80;;;24.10;43.50;;;;;;7674184;22;84702;-52
2022/10/13 01:35:10;;;;;;;21.75;12.73;;;24.10;43.60;;;;;;7675211;22;82886;-53
2022/10/13 01:38:10;;;;;;;25.45;13.13;;;24.10;43.60;;;;;;7675381;22;84266;-53
2022/10/13 01:41:11;;;;;;;23.60;13.43;;;24.10;43.60;;;;;;7675147;22;82766;-54
2022/10/13 01:44:14;;;;;;;19.65;12.27;;;24.10;43.50;;;;;;7673622;22;84786;-48
2022/10/13 01:47:15;;;;;;;19.83;12.98;;;24.10;43.40;;;;;;7674178;22;83738;-47
2022/10/13 01:50:17;;;;;;;19.95;14.02;;;24.10;43.50;;;;;;7676105;22;84204;-48
2022/10/13 01:53:18;;;;;;;20.45;12.27;;;24.10;43.50;;;;;;7675104;22;84520;-48
2022/10/13 01:56:24;;;;;;;;;;;24.10;43.70;;;;;;7650347;22;83093;-48
2022/10/13 01:59:24;;;;;;;20.23;13.00;;;24.10;43.60;;;;;;7688061;22;82918;-47
2022/10/13 02:02:25;;;;;;;20.33;12.43;;;24.10;43.60;;;;;;7677355;22;83167;-64
2022/10/13 02:05:25;;;;;;;18.92;12.40;;;24.10;43.60;;;;;;7672441;22;83290;-62
2022/10/13 02:08:26;;;;;;;19.42;12.15;;;24.00;43.50;;;;;;7674779;22;84137;-63
2022/10/13 02:11:26;;;;;;;19.98;13.05;;;24.10;43.70;;;;;;7676097;22;82939;-62
2022/10/13 02:14:28;;;;;;;24.50;12.50;;;24.00;43.70;;;;;;7678771;22;83493;-63
2022/10/13 02:17:29;;;;;;;22.02;13.68;;;24.00;43.70;;;;;;7669545;22;84649;-63
2022/10/13 02:20:29;;;;;;;19.08;12.90;;;24.00;43.80;;;;;;7676247;22;82975;-63
2022/10/13 02:23:30;;;;;;;18.17;12.07;;;24.00;43.70;;;;;;7676949;22;83330;-63
2022/10/13 02:26:30;;;;;;;18.83;12.20;;;24.00;43.80;;;;;;7677088;22;82902;-63
2022/10/13 02:29:36;;;;;;;17.63;12.77;;;24.00;43.80;;;;;;7674008;22;88474;-63
2022/10/13 02:32:36;;;;;;;23.55;14.07;;;24.00;43.70;;;;;;7674584;22;83290;-62
2022/10/13 02:35:37;;;;;;;20.02;12.52;;;24.00;44.10;;;;;;7675352;22;82883;-61
2022/10/13 02:38:37;;;;;;;16.73;12.07;;;24.00;43.80;;;;;;7677980;22;83017;-61
2022/10/13 02:41:38;;;;;;;20.38;12.40;;;24.00;43.80;;;;;;7672968;22;82871;-60
2022/10/13 02:44:39;;;;;;;18.67;12.43;;;24.00;43.80;;;;;;7674305;22;84158;-63
2022/10/13 02:47:39;;;;;;;18.23;12.10;;;23.90;43.70;;;;;;7675083;22;84363;-60
2022/10/13 02:50:40;;;;;;;20.50;13.13;;;24.00;43.80;;;;;;7675307;22;83221;-61
2022/10/13 02:53:40;;;;;;;18.05;12.70;;;24.00;43.90;;;;;;7674630;22;83600;-61
2022/10/13 02:56:41;;;;;;;19.85;13.13;;;24.00;43.70;;;;;;7674113;22;83042;-61
2022/10/13 02:59:41;;;;;;;19.75;13.00;;;24.00;43.60;;;;;;7675043;22;83579;-62
2022/10/13 03:02:42;;;;;;;19.90;12.70;;;24.00;43.50;;;;;;7674819;22;83968;-63
2022/10/13 03:05:42;;;;;;;17.10;12.90;;;24.00;43.50;;;;;;7676918;22;83212;-63
2022/10/13 03:08:43;;;;;;;20.65;14.00;;;23.90;43.60;;;;;;7670472;22;82949;-63
2022/10/13 03:11:43;;;;;;;20.75;13.60;;;24.00;43.50;;;;;;7675806;22;83333;-64
2022/10/13 03:14:44;;;;;;;20.95;14.30;;;24.00;43.40;;;;;;7675706;22;83247;-63
2022/10/13 03:17:44;;;;;;;21.70;13.27;;;24.00;43.50;;;;;;7676092;22;83551;-65
2022/10/13 03:20:45;;;;;;;20.20;13.95;;;24.00;43.50;;;;;;7674323;22;82965;-64
2022/10/13 03:23:45;;;;;;;20.23;13.77;;;24.00;43.00;;;;;;7672939;22;83041;-60
2022/10/13 03:26:46;;;;;;;20.00;13.00;;;24.00;43.10;;;;;;7671959;22;83001;-61
2022/10/13 03:29:47;;;;;;;23.20;13.40;;;24.00;43.20;;;;;;7668965;22;83593;-63
2022/10/13 03:32:48;;;;;;;25.60;13.98;;;24.00;43.00;;;;;;7669023;22;84804;-64
2022/10/13 03:35:49;;;;;;;20.92;12.40;;;24.10;43.00;;;;;;7673356;22;83633;-64
2022/10/13 03:38:49;;;;;;;23.40;14.02;;;24.10;43.20;;;;;;7675757;22;83462;-64
2022/10/13 03:41:50;;;;;;;23.27;13.80;;;24.20;43.00;;;;;;7671860;22;83161;-63
2022/10/13 03:44:50;;;;;;;20.52;13.25;;;24.20;42.90;;;;;;7672143;22;84311;-62
2022/10/13 03:47:50;;;;;;;20.45;12.73;;;24.20;42.90;;;;;;7673821;22;83706;-62
2022/10/13 03:50:51;;;;;;;20.60;14.38;;;24.20;42.80;;;;;;7674208;22;83725;-60
2022/10/13 03:53:52;;;;;;;19.77;12.63;;;24.30;43.00;;;;;;7671163;22;84021;-58
2022/10/13 03:56:53;;;;;;;22.95;13.10;;;24.30;43.20;;;;;;7675477;22;82917;-53
2022/10/13 03:59:55;;;;;;;24.98;13.57;;;24.30;43.20;;;;;;7673763;22;83038;-50
2022/10/13 04:02:59;;;;;;;;;;;24.30;43.70;;;;;;7672913;22;84651;-52
2022/10/13 04:06:00;;;;;;;22.15;13.35;;;24.30;42.90;;;;;;7688408;22;82899;-52
2022/10/13 04:09:01;;;;;;;19.25;12.65;;;24.40;43.20;;;;;;7675508;22;83906;-61
2022/10/13 04:12:01;;;;;;;22.90;13.48;;;24.40;43.10;;;;;;7673278;22;82968;-66
2022/10/13 04:15:03;;;;;;;25.23;12.35;;;24.40;42.90;;;;;;7673153;22;83710;-63
2022/10/13 04:18:04;;;;;;;27.25;13.90;;;24.40;43.20;;;;;;7672829;22;83582;-64
2022/10/13 04:21:04;;;;;;;23.23;14.27;;;24.40;43.10;;;;;;7670316;22;83075;-64
2022/10/13 04:24:05;;;;;;;30.58;14.20;;;24.40;42.90;;;;;;7671600;22;83082;-63
2022/10/13 04:27:05;;;;;;;21.02;13.95;;;24.30;43.10;;;;;;7673320;22;82983;-63
2022/10/13 04:30:06;;;;;;;22.27;14.43;;;24.30;42.90;;;;;;7672380;22;84885;-65
2022/10/13 04:33:06;;;;;;;20.88;14.00;;;24.30;42.70;;;;;;7670139;22;83139;-62
2022/10/13 04:36:07;;;;;;;21.85;14.43;;;24.30;42.60;;;;;;7673506;22;83696;-64
2022/10/13 04:39:07;;;;;;;24.65;14.77;;;24.30;42.50;;;;;;7675149;22;83049;-65
2022/10/13 04:42:08;;;;;;;25.83;14.30;;;24.30;42.30;;;;;;7671781;22;85115;-65
2022/10/13 04:45:11;;;;;;;26.02;14.20;;;24.30;42.30;;;;;;7673935;22;83452;-63
2022/10/13 04:48:14;;;;;;;22.38;14.93;;;24.30;42.10;;;;;;7674505;22;85440;-59
2022/10/13 04:51:15;;;;;;;23.73;13.48;;;24.30;42.00;;;;;;7675365;22;83696;-60
2022/10/13 04:54:15;;;;;;;23.85;14.68;;;24.30;41.90;;;;;;7672740;22;82905;-60
2022/10/13 04:57:16;;;;;;;19.25;14.48;;;24.30;42.00;;;;;;7674544;22;83539;-63
2022/10/13 05:00:16;;;;;;;20.02;13.68;;;24.30;41.90;;;;;;7674075;22;83018;-58
2022/10/13 05:03:17;;;;;;;21.70;13.82;;;24.30;42.00;;;;;;7674375;22;83010;-51
2022/10/13 05:06:17;;;;;;;21.30;15.07;;;24.30;41.70;;;;;;7672446;22;84666;-50
2022/10/13 05:09:21;;;;;;;21.20;14.07;;;24.20;41.50;;;;;;7676583;22;83150;-60
2022/10/13 05:12:22;;;;;;;24.23;15.02;;;24.30;41.80;;;;;;7672159;22;82992;-59
2022/10/13 05:15:23;;;;;;;21.08;13.75;;;24.20;41.80;;;;;;7672780;22;83176;-62
2022/10/13 05:18:24;;;;;;;20.08;14.32;;;24.20;41.80;;;;;;7669766;22;83615;-61
2022/10/13 05:21:24;;;;;;;21.52;13.80;;;24.10;41.50;;;;;;7659431;22;83731;-65
2022/10/13 05:24:35;;;;;;;22.27;14.90;;;24.10;41.40;;;;;;7663236;22;83452;-55
2022/10/13 05:27:35;;;;;;;25.63;14.18;;;24.10;41.40;;;;;;7669055;22;84582;-53
2022/10/13 05:30:38;;;;;;;22.17;13.80;;;24.00;41.30;;;;;;7672582;22;84146;-50
2022/10/13 05:33:39;;;;;;;21.45;14.18;;;24.00;41.50;;;;;;7672252;22;82995;-52
2022/10/13 05:36:39;;;;;;;22.75;13.85;;;24.00;41.50;;;;;;7672329;22;82756;-53
2022/10/13 05:39:40;;;;;;;18.77;13.60;;;24.00;41.60;;;;;;7670442;22;83007;-56
2022/10/13 05:42:40;;;;;;;27.98;14.48;;;24.00;41.50;;;;;;7671952;22;84142;-52
2022/10/13 05:45:43;;;;;;;23.05;14.43;;;23.90;41.30;;;;;;7670531;22;83996;-55
2022/10/13 05:48:44;;;;;;;21.30;13.30;;;23.90;41.30;;;;;;7672177;22;84315;-53
2022/10/13 05:51:44;;;;;;;19.38;12.70;;;23.90;41.20;;;;;;7674055;22;83056;-53
2022/10/13 05:54:45;;;;;;;20.73;14.38;;;23.90;41.10;;;;;;7669042;22;84078;-50
2022/10/13 05:57:46;;;;;;;18.20;12.93;;;23.80;41.10;;;;;;7669092;22;83113;-50
2022/10/13 06:00:47;;;;;;;19.48;12.93;;;23.80;41.20;;;;;;7667451;22;83255;-53
2022/10/13 06:03:47;;;;;;;20.33;13.63;;;23.70;41.10;;;;;;7670625;22;83381;-53
2022/10/13 06:06:48;;;;;;;17.85;12.65;;;23.70;40.90;;;;;;7669905;22;83510;-51
2022/10/13 06:09:48;;;;;;;20.92;13.70;;;23.70;41.00;;;;;;7674703;22;83078;-51
2022/10/13 06:12:49;;;;;;;17.70;12.63;;;23.70;41.00;;;;;;7675358;22;83326;-52
2022/10/13 06:15:49;;;;;;;20.83;13.68;;;23.70;40.90;;;;;;7671617;22;85041;-56
2022/10/13 06:18:50;;;;;;;17.98;13.00;;;23.70;40.80;;;;;;7671162;22;83475;-54
2022/10/13 06:21:50;;;;;;;19.40;13.85;;;23.70;40.80;;;;;;7675981;22;84298;-53
2022/10/13 06:24:51;;;;;;;20.38;14.18;;;23.70;40.80;;;;;;7675186;22;83502;-55
2022/10/13 06:27:52;;;;;;;17.15;12.93;;;23.60;40.70;;;;;;7675003;22;82915;-52
2022/10/13 06:30:54;;;;;;;18.02;12.85;;;23.60;40.80;;;;;;7672322;22;82660;-52
2022/10/13 06:33:55;;;;;;;18.00;13.95;;;23.60;40.80;;;;;;7672589;22;84443;-54
2022/10/13 06:36:57;;;;;;;18.90;13.57;;;23.60;40.80;;;;;;7672262;22;83677;-52
2022/10/13 06:39:57;;;;;;;17.58;13.30;;;23.60;40.80;;;;;;7677504;22;83132;-48
2022/10/13 06:42:58;;;;;;;22.33;14.77;;;23.60;40.70;;;;;;7676846;22;83157;-51
2022/10/13 06:45:59;;;;;;;19.75;13.57;;;23.60;40.70;;;;;;7633422;22;86070;-49
2022/10/13 06:49:01;;;;;;;19.52;14.30;;;23.60;40.70;;;;;;7658352;22;83408;-51
2022/10/13 06:52:03;;;;;;;18.70;14.38;;;23.60;40.80;;;;;;7656918;22;83690;-53
2022/10/13 06:55:03;;;;;;;20.73;14.02;;;23.60;40.60;;;;;;7673399;22;82957;-63
2022/10/13 06:58:05;;;;;;;18.35;12.93;;;23.60;40.80;;;;;;7665781;22;82829;-58
2022/10/13 07:01:06;;;;;;;22.52;13.55;;;23.60;40.60;;;;;;7673688;22;84189;-52
2022/10/13 07:04:06;;;;;;;21.40;13.82;;;23.60;40.90;;;;;;7669090;22;83003;-54
2022/10/13 07:07:07;;;;;;;18.17;13.70;;;23.70;41.10;;;;;;7677013;22;83503;-52
2022/10/13 07:10:08;;;;;;;29.63;19.15;;;23.70;40.90;;;;;;7675689;22;83080;-55
2022/10/13 07:13:08;;;;;;;133.55;71.97;;;23.70;41.10;;;;;;7673135;22;82759;-54
2022/10/13 07:16:09;;;;;;;203.55;102.75;;;23.70;41.00;;;;;;7674128;22;83791;-48
2022/10/13 07:19:09;;;;;;;146.13;77.05;;;23.80;40.90;;;;;;7671558;22;85342;-52
2022/10/13 07:22:12;;;;;;;129.23;65.82;;;23.70;40.90;;;;;;7675248;22;85263;-48
2022/10/13 07:25:13;;;;;;;120.22;62.00;;;23.80;41.00;;;;;;7678247;22;83084;-48
2022/10/13 07:28:13;;;;;;;106.45;53.78;;;23.80;40.90;;;;;;7667085;22;83442;-49
2022/10/13 07:31:14;;;;;;;91.30;46.42;;;23.80;41.00;;;;;;7670204;22;83673;-50
2022/10/13 07:34:14;;;;;;;82.78;44.42;;;23.80;41.10;;;;;;7671041;22;82947;-48
2022/10/13 07:37:15;;;;;;;77.82;39.58;;;23.90;41.20;;;;;;7670006;22;83525;-51
2022/10/13 07:40:15;;;;;;;76.28;39.85;;;23.90;41.20;;;;;;7669976;22;82925;-49
2022/10/13 07:43:16;;;;;;;62.67;37.72;;;23.90;41.20;;;;;;7667364;22;83019;-53
2022/10/13 07:46:17;;;;;;;66.18;35.50;;;23.90;41.20;;;;;;7670195;22;83030;-53
2022/10/13 07:49:17;;;;;;;63.92;34.20;;;24.00;41.10;;;;;;7676992;22;82985;-59
2022/10/13 07:52:18;;;;;;;56.67;30.92;;;24.00;41.50;;;;;;7662337;22;83505;-49
2022/10/13 07:55:18;;;;;;;53.75;30.30;;;24.10;41.40;;;;;;7653732;22;83464;-49
2022/10/13 07:58:19;;;;;;;51.92;28.08;;;24.00;40.70;;;;;;7669623;22;84790;-49
2022/10/13 08:01:19;;;;;;;42.88;26.52;;;24.10;40.60;;;;;;7675658;22;82740;-51
2022/10/13 08:04:20;;;;;;;43.38;23.45;;;24.10;40.70;;;;;;7677944;22;83541;-47
2022/10/13 08:07:21;;;;;;;38.47;23.38;;;24.00;40.60;;;;;;7676916;22;82808;-49
2022/10/13 08:10:23;;;;;;;36.72;21.50;;;24.00;40.40;;;;;;7657343;22;84384;-51
2022/10/13 08:13:24;;;;;;;34.63;21.20;;;24.10;40.30;;;;;;7675636;22;82925;-50
2022/10/13 08:16:24;;;;;;;36.70;20.20;;;24.10;40.30;;;;;;7674212;22;83258;-50
2022/10/13 08:19:25;;;;;;;33.45;19.65;;;24.20;40.40;;;;;;7675641;22;83076;-50
2022/10/13 08:22:26;;;;;;;28.83;18.88;;;24.20;40.20;;;;;;7671955;22;83099;-51
2022/10/13 08:25:26;;;;;;;26.05;17.60;;;24.30;40.40;;;;;;7659209;22;82760;-51
2022/10/13 08:28:30;;;;;;;25.17;17.52;;;24.30;40.20;;;;;;7669151;22;83050;-53
2022/10/13 08:31:30;;;;;;;29.98;17.60;;;24.30;40.10;;;;;;7675952;22;83425;-49
2022/10/13 08:34:32;;;;;;;25.40;17.02;;;24.30;40.20;;;;;;7674018;22;82774;-48
2022/10/13 08:37:33;;;;;;;26.00;16.98;;;24.40;40.30;;;;;;7676154;22;83455;-52
2022/10/13 08:40:34;;;;;;;27.55;16.42;;;24.40;40.20;;;;;;7673880;22;83284;-49
2022/10/13 08:43:34;;;;;;;21.25;15.75;;;24.40;40.30;;;;;;7675094;22;82729;-50
2022/10/13 08:46:35;;;;;;;22.25;15.88;;;24.50;40.20;;;;;;7676202;22;83930;-59
2022/10/13 08:49:35;;;;;;;20.80;14.98;;;24.60;40.40;;;;;;7646875;22;85949;-59
2022/10/13 08:52:36;;;;;;;22.63;14.65;;;24.60;40.40;;;;;;7660139;22;83467;-58
2022/10/13 08:55:37;;;;;;;28.10;16.65;;;24.60;40.40;;;;;;7674303;22;83044;-60
2022/10/13 08:58:38;;;;;;;27.20;15.88;;;24.70;40.60;;;;;;7676271;22;83225;-58
2022/10/13 09:01:39;;;;;;;27.10;16.45;;;24.80;40.70;;;;;;7668267;22;83077;-58
2022/10/13 09:04:40;;;;;;;22.95;15.63;;;24.80;40.70;;;;;;7674908;22;84786;-58
2022/10/13 09:07:41;;;;;;;21.48;15.75;;;24.90;40.80;;;;;;7652801;22;83647;-59
2022/10/13 09:10:41;;;;;;;27.02;15.73;;;24.90;41.90;;;;;;7666970;22;84035;-60
2022/10/13 09:13:45;;;;;;;23.60;15.73;;;24.90;42.30;;;;;;7674755;22;83857;-59
2022/10/13 09:16:46;;;;;;;19.83;14.65;;;24.90;44.40;;;;;;7673638;22;82986;-58
2022/10/13 09:19:46;;;;;;;23.00;15.20;;;24.90;45.20;;;;;;7659008;22;83633;-58
2022/10/13 09:22:47;;;;;;;25.00;15.90;;;25.00;45.90;;;;;;7666170;22;84132;-58
2022/10/13 09:25:48;;;;;;;25.60;15.65;;;25.00;46.40;;;;;;7675354;22;83114;-62
2022/10/13 09:28:48;;;;;;;20.30;14.50;;;25.10;46.90;;;;;;7675532;22;82612;-63
2022/10/13 09:31:49;;;;;;;24.33;14.98;;;25.10;47.40;;;;;;7673279;22;83532;-63
2022/10/13 09:34:51;;;;;;;20.52;14.63;;;25.10;47.70;;;;;;7675375;22;82869;-63
2022/10/13 09:37:52;;;;;;;22.25;15.75;;;25.20;46.50;;;;;;7674674;22;82815;-63
2022/10/13 09:40:52;;;;;;;22.88;14.82;;;25.20;47.70;;;;;;7662353;22;83412;-64
2022/10/13 09:43:53;;;;;;;24.13;14.00;;;25.30;47.80;;;;;;7674294;22;83020;-64
2022/10/13 09:46:59;;;;;;;19.45;13.18;;;25.30;48.70;;;;;;7677817;22;84522;-65
2022/10/13 09:49:59;;;;;;;23.88;15.07;;;25.40;48.70;;;;;;7676709;22;83061;-66
2022/10/13 09:53:00;;;;;;;22.92;14.27;;;25.40;48.20;;;;;;7676795;22;83152;-65
2022/10/13 09:56:00;;;;;;;19.55;13.98;;;25.50;48.10;;;;;;7675252;22;83670;-66
2022/10/13 09:59:01;;;;;;;21.65;14.30;;;25.50;48.00;;;;;;7676262;22;83823;-67
2022/10/13 10:02:02;;;;;;;23.67;14.38;;;25.60;47.60;;;;;;7676951;22;83080;-53
2022/10/13 10:05:02;;;;;;;22.83;14.45;;;25.60;47.00;;;;;;7674779;22;83029;-53
2022/10/13 10:08:03;;;;;;;20.83;13.40;;;25.70;46.90;;;;;;7675225;22;83496;-53
2022/10/13 10:11:04;;;;;;;20.50;13.27;;;25.70;46.30;;;;;;7674939;22;83976;-54
2022/10/13 10:14:05;;;;;;;21.08;12.98;;;25.80;46.30;;;;;;7659202;22;84194;-54
2022/10/13 10:17:06;;;;;;;46.17;12.90;;;25.80;45.60;;;;;;7664687;22;82748;-56
2022/10/13 10:20:06;;;;;;;17.90;12.77;;;25.90;45.40;;;;;;7666092;22;83787;-53
2022/10/13 10:23:09;;;;;;;17.58;11.90;;;25.90;45.60;;;;;;7666279;22;84285;-53
2022/10/13 10:26:10;;;;;;;17.38;12.13;;;25.90;44.60;;;;;;7662961;22;82881;-52
2022/10/13 10:29:10;;;;;;;21.08;11.82;;;26.00;44.20;;;;;;7647463;22;83187;-57
2022/10/13 10:32:11;;;;;;;16.88;11.05;;;26.00;44.00;;;;;;7676660;22;83699;-63
2022/10/13 10:35:12;;;;;;;17.10;11.52;;;26.10;43.90;;;;;;7674342;22;83482;-52
2022/10/13 10:38:12;;;;;;;19.23;12.25;;;26.10;44.00;;;;;;7674223;22;83062;-53
2022/10/13 10:41:14;;;;;;;17.25;11.95;;;26.10;43.30;;;;;;7651270;22;85807;-55
2022/10/13 10:44:17;;;;;;;19.90;13.45;;;26.10;42.70;;;;;;7676330;22;83187;-54
2022/10/13 10:47:18;;;;;;;20.05;12.10;;;26.10;42.30;;;;;;7676434;22;83819;-56
2022/10/13 10:50:19;;;;;;;19.13;12.15;;;26.10;42.30;;;;;;7677009;22;82649;-52
2022/10/13 10:53:20;;;;;;;16.45;11.88;;;26.10;42.10;;;;;;7676313;22;83001;-56
2022/10/13 10:56:20;;;;;;;22.05;13.15;;;26.10;41.60;;;;;;7676445;22;83889;-61
2022/10/13 10:59:21;;;;;;;17.98;13.00;;;26.10;41.30;;;;;;7678216;22;83128;-61
2022/10/13 11:02:21;;;;;;;19.88;13.55;;;26.10;41.40;;;;;;7676037;22;82748;-61
2022/10/13 11:05:22;;;;;;;18.00;11.60;;;26.00;41.40;;;;;;7644611;22;84532;-61
2022/10/13 11:08:22;;;;;;;20.90;12.98;;;26.00;41.30;;;;;;7674873;22;82751;-61
2022/10/13 11:11:30;;;;;;;16.92;11.80;;;26.00;41.10;;;;;;7671853;22;83109;-62
2022/10/13 11:14:30;;;;;;;17.13;12.18;;;26.00;41.30;;;;;;7676867;22;83514;-61
2022/10/13 11:17:31;;;;;;;19.92;12.90;;;26.00;41.10;;;;;;7672354;22;84572;-61
2022/10/13 11:20:31;;;;;;;17.77;12.07;;;26.00;41.30;;;;;;7676150;22;84448;-61
2022/10/13 11:23:32;;;;;;;18.63;11.73;;;26.00;41.20;;;;;;7675934;22;85194;-61
2022/10/13 11:26:34;;;;;;;17.75;12.05;;;26.00;41.10;;;;;;7679827;22;87238;-61
2022/10/13 11:29:34;;;;;;;15.27;11.48;;;26.00;41.10;;;;;;7676004;22;83067;-61
2022/10/13 11:35:36;;;;;;;17.27;10.68;;;26.00;41.30;;;;;;7676360;22;83186;-61
2022/10/13 11:38:38;;;;;;;16.48;9.38;;;26.00;41.10;;;;;;7674137;22;82883;-62
2022/10/13 11:41:39;;;;;;;15.27;10.40;;;26.10;41.40;;;;;;7682889;22;82881;-60
2022/10/13 11:44:39;;;;;;;16.63;9.43;;;26.20;41.50;;;;;;7676543;22;82650;-61
2022/10/13 11:47:40;;;;;;;18.13;8.60;;;26.30;42.00;;;;;;7653682;22;83493;-62
2022/10/13 11:50:41;;;;;;;12.15;8.80;;;26.30;42.00;;;;;;7680062;22;80349;-52
2022/10/13 11:53:41;;;;;;;13.38;9.38;;;26.40;42.10;;;;;;7681314;22;80426;-55
2022/10/13 11:56:42;;;;;;;16.13;8.60;;;26.50;42.00;;;;;;7678754;22;80130;-52
2022/10/13 11:59:42;;;;;;;15.05;8.50;;;26.50;42.00;;;;;;7680266;22;80637;-54
2022/10/13 12:02:43;;;;;;;14.70;9.57;;;26.60;42.30;;;;;;7678380;22;80633;-52
2022/10/13 12:05:44;;;;;;;21.77;10.57;;;26.60;42.10;;;;;;7679156;22;81552;-53
2022/10/13 12:08:45;;;;;;;23.42;11.10;;;26.70;42.40;;;;;;7675472;22;84150;-61
2022/10/13 12:11:45;;;;;;;38.33;21.10;;;26.70;42.60;;;;;;7672250;22;83697;-62
2022/10/13 12:14:52;;;;;;;75.55;40.50;;;26.80;42.90;;;;;;7671569;22;83382;-62
2022/10/13 12:17:54;;;;;;;102.50;67.30;;;26.80;43.40;;;;;;7672860;22;83869;-61
2022/10/13 12:20:54;;;;;;;144.23;109.35;;;26.80;43.90;;;;;;7671068;22;82643;-62
2022/10/13 12:23:55;;;;;;;100.50;70.55;;;26.80;43.10;;;;;;7669708;22;86681;-64
2022/10/13 12:26:55;;;;;;;86.85;59.35;;;26.70;42.60;;;;;;7670693;22;85562;-65
2022/10/13 12:29:56;;;;;;;61.78;38.88;;;26.70;42.50;;;;;;7671322;22;83097;-65
2022/10/13 12:32:57;;;;;;;38.42;26.08;;;26.60;41.80;;;;;;7674019;22;83441;-64
2022/10/13 12:35:57;;;;;;;34.10;23.13;;;26.60;41.10;;;;;;7679447;22;83182;-64
2022/10/13 12:38:58;;;;;;;32.50;19.60;;;26.60;41.20;;;;;;7675478;22;83139;-64
2022/10/13 12:41:59;;;;;;;24.13;15.48;;;26.60;41.20;;;;;;7676293;22;83842;-64
2022/10/13 12:44:59;;;;;;;36.75;13.77;;;26.50;40.90;;;;;;7677223;22;82884;-64
2022/10/13 12:48:00;;;;;;;19.65;12.07;;;26.50;40.60;;;;;;7677064;22;83205;-64
2022/10/13 12:51:00;;;;;;;15.98;9.63;;;26.50;40.70;;;;;;7674021;22;83311;-66
2022/10/13 12:54:01;;;;;;;12.05;8.35;;;26.40;40.30;;;;;;7680635;22;82891;-63
2022/10/13 12:57:02;;;;;;;12.73;7.82;;;26.40;40.00;;;;;;7680592;22;80232;-63
2022/10/13 13:00:02;;;;;;;14.35;7.50;;;26.40;40.40;;;;;;7679723;22;80190;-64
2022/10/13 13:03:03;;;;;;;16.48;9.27;;;26.50;40.60;;;;;;7679074;22;80459;-64
2022/10/13 13:06:04;;;;;;;12.80;7.53;;;26.50;40.80;;;;;;7683363;22;81408;-64
2022/10/13 13:09:05;;;;;;;11.98;7.25;;;26.50;40.50;;;;;;7680626;22;81749;-63
2022/10/13 13:12:07;;;;;;;11.40;7.35;;;26.60;40.90;;;;;;7681144;22;81474;-63
2022/10/13 13:15:08;;;;;;;17.10;7.35;;;26.60;40.70;;;;;;7678541;22;80341;-63
2022/10/13 13:18:08;;;;;;;14.75;7.55;;;26.60;40.60;;;;;;7682269;22;80233;-63
2022/10/13 13:21:09;;;;;;;11.77;6.00;;;26.60;40.50;;;;;;7679802;22;80618;-63
2022/10/13 13:24:14;;;;;;;10.38;6.70;;;26.70;41.00;;;;;;7680930;22;82402;-63
2022/10/13 13:27:14;;;;;;;11.98;6.25;;;26.70;41.00;;;;;;7682028;22;80056;-64
2022/10/13 13:30:15;;;;;;;9.77;6.30;;;26.70;41.00;;;;;;7679335;22;80094;-63
2022/10/13 13:33:15;;;;;;;8.75;6.07;;;26.70;41.00;;;;;;7682603;22;81376;-64
2022/10/13 13:36:17;;;;;;;8.75;6.15;;;26.60;41.30;;;;;;7679639;22;81592;-63
2022/10/13 13:39:20;;;;;;;10.70;6.95;;;26.60;41.10;;;;;;7675927;22;80457;-63
2022/10/13 13:42:20;;;;;;;11.80;6.55;;;26.50;41.30;;;;;;7680565;22;81672;-63
2022/10/13 13:45:21;;;;;;;7.80;5.95;;;26.50;40.90;;;;;;7674441;22;81133;-63
2022/10/13 13:48:23;;;;;;;10.55;7.13;;;26.50;41.20;;;;;;7681999;22;81708;-64
2022/10/13 13:51:24;;;;;;;10.60;6.13;;;26.50;41.30;;;;;;7680769;22;81823;-64
2022/10/13 13:54:25;;;;;;;11.32;6.85;;;26.50;41.50;;;;;;7679409;22;81172;-65
2022/10/13 13:57:26;;;;;;;13.02;6.25;;;26.50;41.40;;;;;;7680009;22;80360;-64
2022/10/13 14:00:26;;;;;;;8.80;5.60;;;26.50;41.90;;;;;;7679398;22;81751;-63
2022/10/13 14:03:28;;;;;;;13.30;6.72;;;26.50;41.90;;;;;;7681883;22;82060;-62
2022/10/13 14:06:30;;;;;;;9.27;5.93;;;26.50;41.70;;;;;;7678978;22;80706;-62
2022/10/13 14:09:30;;;;;;;10.05;6.05;;;26.50;41.90;;;;;;7651967;22;81660;-64
2022/10/13 14:12:31;;;;;;;12.30;5.38;;;26.50;42.20;;;;;;7678098;22;80836;-63
2022/10/13 14:15:31;;;;;;;9.70;5.38;;;26.40;42.60;;;;;;7678866;22;80253;-63
2022/10/13 14:18:32;;;;;;;18.75;5.90;;;26.40;42.80;;;;;;7678913;22;87524;-65
2022/10/13 14:21:32;;;;;;;13.75;5.40;;;26.20;43.10;;;;;;7677160;22;80560;-63
2022/10/13 14:24:34;;;;;;;11.90;5.47;;;26.20;42.70;;;;;;7673732;22;81386;-63
2022/10/13 14:27:35;;;;;;;11.75;5.82;;;26.10;42.90;;;;;;7676062;22;81306;-62
2022/10/13 14:30:36;;;;;;;12.90;5.47;;;26.10;43.00;;;;;;7633062;22;81067;-63
2022/10/13 14:33:37;;;;;;;12.80;5.07;;;26.10;43.40;;;;;;7648924;22;81751;-63
2022/10/13 14:36:38;;;;;;;8.07;4.55;;;26.00;43.50;;;;;;7653672;22;80805;-61
2022/10/13 14:39:38;;;;;;;14.15;5.20;;;26.10;43.50;;;;;;7658652;22;80615;-61
2022/10/13 14:42:41;;;;;;;16.70;5.53;;;26.00;43.60;;;;;;7664068;22;81858;-62
2022/10/13 14:45:44;;;;;;;10.53;5.50;;;26.10;44.30;;;;;;7674256;22;81700;-62
2022/10/13 14:48:44;;;;;;;14.52;5.38;;;26.10;44.70;;;;;;7652131;22;81883;-62
2022/10/13 14:51:45;;;;;;;14.93;5.97;;;26.00;45.00;;;;;;7673835;22;80912;-63
2022/10/13 14:54:46;;;;;;;10.05;5.43;;;26.00;44.40;;;;;;7675293;22;81496;-57
2022/10/13 14:57:46;;;;;;;9.07;5.25;;;25.90;44.90;;;;;;7674079;22;80386;-52
2022/10/13 15:00:48;;;;;;;10.88;5.25;;;25.80;45.10;;;;;;7668619;22;80852;-51
2022/10/13 15:03:48;;;;;;;9.48;5.25;;;25.80;45.00;;;;;;7675385;22;81086;-54
2022/10/13 15:06:49;;;;;;;13.05;5.22;;;25.70;44.80;;;;;;7668825;22;80193;-55
2022/10/13 15:09:49;;;;;;;11.63;6.05;;;25.70;44.90;;;;;;7661048;22;82345;-57
2022/10/13 15:12:50;;;;;;;12.52;5.85;;;25.70;44.80;;;;;;7659627;22;81472;-56
2022/10/13 15:15:50;;;;;;;11.57;5.40;;;25.60;44.90;;;;;;7674699;22;81598;-56
2022/10/13 15:18:51;;;;;;;12.50;5.50;;;25.60;44.80;;;;;;7673436;22;80269;-54
2022/10/13 15:21:52;;;;;;;11.63;4.72;;;25.60;44.80;;;;;;7676411;22;81107;-54
2022/10/13 15:24:52;;;;;;;9.65;5.43;;;25.50;45.00;;;;;;7675808;22;80496;-48